createdAt,value
2023-04-22T00:05:01.940Z,8.20
2023-04-22T00:07:30.191Z,8.32
2023-04-22T00:09:58.041Z,7.68
2023-04-22T00:12:26.038Z,6.63
2023-04-22T00:14:53.902Z,8.23
2023-04-22T00:17:21.752Z,9.15
2023-04-22T00:19:50.150Z,8.13
2023-04-22T00:22:18.095Z,8.98
2023-04-22T00:24:46.052Z,6.82
2023-04-22T00:27:14.010Z,7.32
2023-04-22T00:29:42.066Z,10.18
2023-04-22T00:32:10.225Z,10.05
2023-04-22T00:34:38.242Z,8.48
2023-04-22T00:37:06.960Z,9.35
2023-04-22T00:39:35.448Z,11.88
2023-04-22T00:42:03.646Z,13.90
2023-04-22T00:44:31.968Z,10.07
2023-04-22T00:47:00.680Z,9.13
2023-04-22T00:49:28.852Z,8.30
2023-04-22T00:51:56.830Z,9.80
2023-04-22T00:54:24.918Z,21.45
2023-04-22T00:56:53.348Z,14.98
2023-04-22T00:59:23.576Z,10.73
2023-04-22T01:01:52.505Z,6.90
2023-04-22T01:04:22.006Z,8.07
2023-04-22T01:06:53.901Z,9.05
2023-04-22T01:09:22.025Z,10.38
2023-04-22T01:11:49.987Z,7.35
2023-04-22T01:14:18.040Z,8.65
2023-04-22T01:16:46.710Z,14.15
2023-04-22T01:19:15.382Z,10.55
2023-04-22T01:21:45.292Z,11.90
2023-04-22T01:24:13.747Z,9.18
2023-04-22T01:26:41.652Z,6.85
2023-04-22T01:29:09.740Z,8.35
2023-04-22T01:31:39.062Z,8.65
2023-04-22T01:34:07.604Z,8.82
2023-04-22T01:36:35.608Z,8.13
2023-04-22T01:39:03.727Z,9.88
2023-04-22T01:41:32.705Z,12.75
2023-04-22T01:44:02.928Z,11.68
2023-04-22T01:46:31.110Z,16.75
2023-04-22T01:48:59.127Z,9.68
2023-04-22T01:51:27.180Z,12.23
2023-04-22T01:53:57.012Z,9.63
2023-04-22T01:56:25.108Z,9.90
2023-04-22T01:58:53.079Z,14.27
2023-04-22T02:01:20.975Z,14.65
2023-04-22T02:03:49.317Z,8.55
2023-04-22T02:06:17.406Z,8.10
2023-04-22T02:08:45.400Z,14.98
2023-04-22T02:11:14.193Z,18.65
2023-04-22T02:13:42.419Z,13.18
2023-04-22T02:16:11.151Z,10.63
2023-04-22T02:18:39.251Z,8.45
2023-04-22T02:21:09.805Z,7.90
2023-04-22T02:23:39.626Z,9.63
2023-04-22T02:26:08.646Z,10.07
2023-04-22T02:28:36.578Z,9.63
2023-04-22T02:31:06.888Z,8.52
2023-04-22T02:33:34.942Z,9.57
2023-04-22T02:36:02.765Z,6.10
2023-04-22T02:38:30.780Z,9.90
2023-04-22T02:40:58.817Z,9.52
2023-04-22T02:43:27.257Z,10.30
2023-04-22T02:45:55.328Z,13.13
2023-04-22T02:48:23.631Z,12.85
2023-04-22T02:50:51.576Z,9.52
2023-04-22T02:55:28.567Z,3.85
2023-04-22T02:57:56.760Z,10.18
2023-04-22T03:00:24.736Z,5.82
2023-04-22T03:02:52.994Z,6.35
2023-04-22T03:05:25.312Z,6.43
2023-04-22T03:07:53.814Z,11.48
2023-04-22T03:10:22.257Z,7.20
2023-04-22T03:12:51.645Z,7.45
2023-04-22T03:15:21.643Z,8.00
2023-04-22T03:17:50.039Z,9.18
2023-04-22T03:20:21.022Z,9.55
2023-04-22T03:25:17.671Z,6.25
2023-04-22T03:27:54.714Z,6.47
2023-04-22T03:30:22.913Z,6.18
2023-04-22T03:32:51.325Z,6.10
2023-04-22T03:35:23.106Z,6.70
2023-04-22T03:37:52.803Z,8.40
2023-04-22T03:40:27.105Z,6.65
2023-04-22T03:42:55.805Z,7.32
2023-04-22T03:45:24.066Z,8.10
2023-04-22T03:48:12.425Z,8.30
2023-04-22T03:50:46.118Z,7.28
2023-04-22T03:53:14.539Z,7.40
2023-04-22T03:55:42.705Z,7.68
2023-04-22T04:00:39.591Z,6.30
2023-04-22T04:03:12.230Z,6.45
2023-04-22T04:05:40.842Z,7.35
2023-04-22T04:08:10.056Z,6.47
2023-04-22T04:10:38.008Z,8.23
2023-04-22T04:13:06.535Z,7.10
2023-04-22T04:15:45.281Z,10.48
2023-04-22T04:18:14.142Z,8.50
2023-04-22T04:20:42.740Z,7.80
2023-04-22T04:23:10.772Z,8.27
2023-04-22T04:25:38.972Z,9.27
2023-04-22T04:28:13.104Z,7.55
2023-04-22T04:30:41.993Z,9.23
2023-04-22T04:33:10.347Z,10.43
2023-04-22T04:35:41.812Z,16.17
2023-04-22T04:38:13.088Z,13.07
2023-04-22T04:43:14.639Z,11.00
2023-04-22T04:45:52.297Z,10.80
2023-04-22T04:48:27.370Z,10.40
2023-04-22T04:51:01.883Z,11.55
2023-04-22T04:53:32.980Z,10.48
2023-04-22T04:56:01.066Z,11.60
2023-04-22T04:58:30.638Z,9.75
2023-04-22T05:01:12.603Z,8.63
2023-04-22T05:03:42.958Z,10.15
2023-04-22T05:06:11.034Z,9.70
2023-04-22T05:08:41.464Z,11.68
2023-04-22T05:11:10.992Z,9.85
2023-04-22T05:13:39.016Z,11.65
2023-04-22T05:16:09.987Z,10.07
2023-04-22T05:18:40.399Z,9.27
2023-04-22T05:21:10.537Z,8.50
2023-04-22T05:23:39.809Z,9.02
2023-04-22T05:26:08.252Z,7.90
2023-04-22T05:28:40.018Z,7.55
2023-04-22T05:31:08.185Z,7.80
2023-04-22T05:33:36.412Z,7.18
2023-04-22T05:36:04.753Z,7.25
2023-04-22T05:38:32.691Z,7.82
2023-04-22T05:41:01.446Z,7.90
2023-04-22T05:43:30.227Z,8.10
2023-04-22T05:46:08.113Z,8.35
2023-04-22T05:48:39.051Z,8.30
2023-04-22T05:51:10.549Z,9.95
2023-04-22T05:53:39.058Z,8.77
2023-04-22T05:56:07.350Z,10.50
2023-04-22T05:58:35.417Z,9.05
2023-04-22T06:01:10.513Z,12.40
2023-04-22T06:03:52.891Z,8.30
2023-04-22T06:06:21.400Z,6.90
2023-04-22T06:08:49.624Z,7.45
2023-04-22T06:11:18.940Z,9.82
2023-04-22T06:13:47.449Z,10.18
2023-04-22T06:16:16.951Z,9.93
2023-04-22T06:18:44.981Z,10.05
2023-04-22T06:21:13.541Z,9.82
2023-04-22T06:23:42.627Z,9.27
2023-04-22T06:26:10.806Z,8.93
2023-04-22T06:28:39.164Z,8.35
2023-04-22T06:31:12.294Z,9.15
2023-04-22T06:33:40.740Z,8.32
2023-04-22T06:36:09.628Z,10.55
2023-04-22T06:38:38.841Z,14.52
2023-04-22T06:41:34.707Z,9.60
2023-04-22T06:44:09.927Z,12.38
2023-04-22T06:46:44.120Z,9.10
2023-04-22T06:49:24.244Z,7.40
2023-04-22T06:51:58.332Z,7.53
2023-04-22T06:54:26.492Z,7.97
2023-04-22T06:56:55.338Z,8.75
2023-04-22T06:59:25.122Z,7.32
2023-04-22T07:01:53.356Z,7.45
2023-04-22T07:04:22.528Z,7.47
2023-04-22T07:09:18.861Z,7.57
2023-04-22T07:11:46.840Z,8.15
2023-04-22T07:14:19.105Z,8.23
2023-04-22T07:16:47.797Z,7.70
2023-04-22T07:19:15.982Z,6.93
2023-04-22T07:21:43.989Z,8.55
2023-04-22T07:24:13.526Z,9.60
2023-04-22T07:26:43.120Z,8.55
2023-04-22T07:29:13.472Z,7.85
2023-04-22T07:31:41.973Z,8.20
2023-04-22T07:34:11.221Z,9.90
2023-04-22T07:36:39.413Z,6.80
2023-04-22T07:39:08.163Z,7.72
2023-04-22T07:44:04.682Z,6.25
2023-04-22T07:46:32.958Z,6.53
2023-04-22T07:51:30.037Z,4.32
2023-04-22T07:53:57.996Z,4.10
2023-04-22T07:56:27.213Z,4.47
2023-04-22T07:58:57.618Z,3.85
2023-04-22T08:01:25.776Z,3.22
2023-04-22T08:03:54.124Z,2.95
2023-04-22T08:06:22.365Z,4.13
2023-04-22T08:08:50.305Z,6.53
2023-04-22T08:11:18.325Z,3.80
2023-04-22T08:13:46.424Z,7.53
2023-04-22T08:16:14.415Z,3.03
2023-04-22T08:18:42.750Z,9.88
2023-04-22T08:23:39.551Z,5.70
2023-04-22T08:28:36.566Z,7.25
2023-04-22T08:31:05.031Z,5.90
2023-04-22T08:33:33.156Z,3.95
2023-04-22T08:36:03.756Z,3.78
2023-04-22T08:38:32.030Z,3.13
2023-04-22T08:43:28.705Z,3.33
2023-04-22T08:45:56.722Z,3.08
2023-04-22T08:48:26.511Z,4.00
2023-04-22T08:50:54.986Z,3.38
2023-04-22T08:53:24.783Z,2.90
2023-04-22T08:55:56.568Z,4.63
2023-04-22T08:58:24.747Z,3.22
2023-04-22T09:00:53.605Z,3.33
2023-04-22T09:03:23.692Z,3.13
2023-04-22T09:05:53.481Z,5.57
2023-04-22T09:08:24.581Z,4.63
2023-04-22T09:10:52.790Z,3.72
2023-04-22T09:13:22.047Z,5.35
2023-04-22T09:15:50.138Z,3.33
2023-04-22T09:18:21.963Z,4.13
2023-04-22T09:20:54.796Z,3.90
2023-04-22T09:23:23.072Z,3.58
2023-04-22T09:25:51.142Z,10.93
2023-04-22T09:28:20.006Z,5.88
2023-04-22T09:30:48.631Z,3.95
2023-04-22T09:33:17.827Z,3.38
2023-04-22T09:35:46.160Z,3.90
2023-04-22T09:40:44.561Z,3.97
2023-04-22T09:43:13.287Z,9.63
2023-04-22T09:45:43.069Z,3.72
2023-04-22T09:48:18.865Z,3.45
2023-04-22T09:50:49.599Z,3.28
2023-04-22T09:53:20.580Z,13.32
2023-04-22T09:55:54.361Z,3.65
2023-04-22T09:58:24.282Z,3.72
2023-04-22T10:00:55.457Z,4.13
2023-04-22T10:03:24.194Z,3.70
2023-04-22T10:05:52.730Z,5.63
2023-04-22T10:08:21.146Z,3.65
2023-04-22T10:10:49.825Z,3.67
2023-04-22T10:15:54.355Z,5.05
2023-04-22T10:18:28.542Z,5.68
2023-04-22T10:20:58.647Z,4.22
2023-04-22T10:23:32.580Z,4.75
2023-04-22T10:26:01.355Z,3.67
2023-04-22T10:28:31.057Z,3.55
2023-04-22T10:31:01.167Z,10.23
2023-04-22T10:33:31.899Z,12.23
2023-04-22T10:36:15.242Z,8.43
2023-04-22T10:38:56.043Z,4.38
2023-04-22T10:43:59.060Z,4.68
2023-04-22T10:46:40.349Z,18.88
2023-04-22T10:49:21.021Z,13.00
2023-04-22T10:51:54.563Z,4.93
2023-04-22T10:54:31.516Z,4.72
2023-04-22T10:57:11.818Z,13.07
2023-04-22T10:59:59.325Z,5.10
2023-04-22T11:02:28.023Z,5.10
2023-04-22T11:05:19.102Z,3.45
2023-04-22T11:07:50.045Z,3.20
2023-04-22T11:10:46.977Z,6.13
2023-04-22T11:13:22.766Z,8.45
2023-04-22T11:15:55.396Z,5.50
2023-04-22T11:18:27.723Z,2.90
2023-04-22T11:20:57.364Z,6.70
2023-04-22T11:23:27.620Z,5.45
2023-04-22T11:26:02.641Z,2.90
2023-04-22T11:28:31.943Z,2.38
2023-04-22T11:31:08.524Z,3.08
2023-04-22T11:33:39.398Z,2.83
2023-04-22T11:36:12.646Z,3.83
2023-04-22T11:38:41.489Z,3.38
2023-04-22T11:43:48.094Z,8.07
2023-04-22T11:46:16.682Z,3.47
2023-04-22T11:51:13.484Z,5.63
2023-04-22T11:53:50.683Z,7.72
2023-04-22T11:56:21.014Z,3.70
2023-04-22T11:58:49.516Z,3.28
2023-04-22T12:01:18.383Z,3.42
2023-04-22T12:03:47.151Z,3.33
2023-04-22T12:06:17.183Z,3.58
2023-04-22T12:08:47.731Z,3.83
2023-04-22T12:11:15.861Z,3.53
2023-04-22T12:13:48.431Z,3.67
2023-04-22T12:16:20.380Z,3.03
2023-04-22T12:18:50.375Z,6.38
2023-04-22T12:21:22.153Z,3.35
2023-04-22T12:24:00.320Z,3.28
2023-04-22T12:26:28.943Z,4.00
2023-04-22T12:31:28.364Z,2.83
2023-04-22T12:33:57.206Z,3.50
2023-04-22T12:36:26.559Z,3.78
2023-04-22T12:38:55.014Z,3.25
2023-04-22T12:41:24.061Z,2.58
2023-04-22T12:43:53.024Z,2.67
2023-04-22T12:46:21.764Z,2.17
2023-04-22T12:51:18.742Z,2.00
2023-04-22T12:53:47.063Z,2.05
2023-04-22T12:56:15.763Z,1.67
2023-04-22T13:01:12.209Z,1.95
2023-04-22T13:03:40.718Z,2.80
2023-04-22T13:06:09.453Z,2.38
2023-04-22T13:11:08.258Z,3.50
2023-04-22T13:13:37.026Z,3.80
2023-04-22T13:16:05.831Z,2.67
2023-04-22T13:18:34.377Z,5.35
2023-04-22T13:21:02.742Z,4.10
2023-04-22T13:23:31.397Z,3.20
2023-04-22T13:26:00.270Z,2.75
2023-04-22T13:28:28.876Z,3.50
2023-04-22T13:33:25.589Z,2.40
2023-04-22T13:35:54.106Z,3.40
2023-04-22T13:38:22.701Z,4.18
2023-04-22T13:43:19.529Z,5.05
2023-04-22T13:48:17.428Z,3.22
2023-04-22T13:50:45.937Z,3.13
2023-04-22T13:53:14.635Z,3.63
2023-04-22T14:01:09.328Z,2.30
2023-04-22T14:03:37.763Z,2.72
2023-04-22T14:08:34.533Z,5.93
2023-04-22T14:11:03.671Z,4.28
2023-04-22T14:13:32.059Z,6.60
2023-04-22T14:16:00.840Z,5.13
2023-04-22T14:20:58.313Z,3.90
2023-04-22T14:23:26.574Z,5.45
2023-04-22T14:25:55.610Z,3.28
2023-04-22T14:28:24.122Z,3.30
2023-04-22T14:30:53.048Z,5.85
2023-04-22T14:33:24.367Z,4.63
2023-04-22T14:35:53.734Z,3.15
2023-04-22T14:38:22.476Z,6.80
2023-04-22T14:40:51.085Z,5.75
2023-04-22T14:43:20.505Z,4.40
2023-04-22T14:45:49.329Z,4.95
2023-04-22T14:48:17.878Z,5.30
2023-04-22T14:50:46.676Z,4.68
2023-04-22T14:55:43.177Z,3.17
2023-04-22T14:58:11.648Z,3.20
2023-04-22T15:00:40.240Z,3.40
2023-04-22T15:03:08.548Z,3.20
2023-04-22T15:05:37.077Z,4.25
2023-04-22T15:08:05.240Z,3.67
2023-04-22T15:10:34.303Z,3.08
2023-04-22T15:13:02.754Z,3.30
2023-04-22T15:15:30.959Z,5.97
2023-04-22T15:17:59.168Z,4.22
2023-04-22T15:20:27.261Z,4.47
2023-04-22T15:22:55.350Z,3.30
2023-04-22T15:25:24.751Z,4.18
2023-04-22T15:27:53.552Z,5.32
2023-04-22T15:30:22.002Z,5.45
2023-04-22T15:32:50.546Z,4.53
2023-04-22T15:35:20.591Z,3.63
2023-04-22T15:37:49.319Z,4.57
2023-04-22T15:40:17.681Z,2.78
2023-04-22T15:42:46.167Z,3.13
2023-04-22T15:45:14.637Z,4.63
2023-04-22T15:47:43.063Z,3.97
2023-04-22T15:52:40.112Z,3.22
2023-04-22T15:55:08.753Z,4.45
2023-04-22T15:57:36.807Z,4.22
2023-04-22T16:00:12.715Z,3.80
2023-04-22T16:02:45.706Z,5.13
2023-04-22T16:05:15.134Z,4.28
2023-04-22T16:07:43.640Z,5.28
2023-04-22T16:10:12.425Z,4.80
2023-04-22T16:15:11.359Z,4.85
2023-04-22T16:17:39.764Z,4.95
2023-04-22T16:20:10.063Z,4.90
2023-04-22T16:22:38.694Z,9.13
2023-04-22T16:25:07.859Z,6.95
2023-04-22T16:27:36.445Z,6.20
2023-04-22T16:30:06.134Z,8.93
2023-04-22T16:32:34.907Z,6.07
2023-04-22T16:35:03.322Z,7.10
2023-04-22T16:37:32.183Z,4.68
2023-04-22T16:42:31.815Z,6.35
2023-04-22T16:45:00.544Z,5.90
2023-04-22T16:49:56.817Z,5.03
2023-04-22T16:52:26.016Z,5.95
2023-04-22T16:54:54.506Z,7.28
2023-04-22T16:57:23.287Z,6.47
2023-04-22T17:02:19.984Z,5.82
2023-04-22T17:04:48.301Z,5.63
2023-04-22T17:07:16.918Z,6.70
2023-04-22T17:09:45.390Z,10.15
2023-04-22T17:12:13.996Z,5.45
2023-04-22T17:14:42.609Z,6.35
2023-04-22T17:17:11.292Z,6.82
2023-04-22T17:19:40.169Z,6.47
2023-04-22T17:22:08.947Z,6.75
2023-04-22T17:24:37.501Z,6.30
2023-04-22T17:27:06.052Z,6.13
2023-04-22T17:29:34.551Z,4.80
2023-04-22T17:32:03.053Z,5.75
2023-04-22T17:34:32.096Z,5.57
2023-04-22T17:37:00.572Z,5.18
2023-04-22T17:39:29.313Z,5.68
2023-04-22T17:41:58.904Z,7.28
2023-04-22T17:44:27.475Z,4.95
2023-04-22T17:46:56.196Z,7.32
2023-04-22T17:51:54.225Z,4.53
2023-04-22T17:54:23.686Z,4.18
2023-04-22T17:56:52.060Z,4.25
2023-04-22T17:59:20.492Z,6.95
2023-04-22T18:01:49.061Z,9.13
2023-04-22T18:04:17.564Z,5.22
2023-04-22T18:06:46.506Z,9.65
2023-04-22T18:09:14.909Z,11.85
2023-04-22T18:11:43.556Z,8.98
2023-04-22T18:14:11.929Z,7.30
2023-04-22T18:16:40.321Z,10.73
2023-04-22T18:19:08.792Z,10.40
2023-04-22T18:21:41.625Z,7.63
2023-04-22T18:24:15.264Z,13.55
2023-04-22T18:26:45.783Z,12.52
2023-04-22T18:29:14.525Z,11.63
2023-04-22T18:31:43.024Z,8.70
2023-04-22T18:34:13.861Z,9.10
2023-04-22T18:36:42.967Z,7.95
2023-04-22T18:41:40.435Z,13.57
2023-04-22T18:44:08.934Z,9.57
2023-04-22T18:46:37.358Z,9.43
2023-04-22T18:49:06.190Z,7.90
2023-04-22T18:51:34.804Z,8.95
2023-04-22T18:54:03.314Z,9.68
2023-04-22T18:56:33.309Z,8.20
2023-04-22T18:59:01.795Z,8.48
2023-04-22T19:01:30.474Z,8.48
2023-04-22T19:04:02.152Z,7.47
2023-04-22T19:06:30.818Z,7.43
2023-04-22T19:08:59.312Z,6.45
2023-04-22T19:11:28.392Z,8.43
2023-04-22T19:13:57.179Z,13.55
2023-04-22T19:16:26.457Z,8.60
2023-04-22T19:18:55.487Z,12.32
2023-04-22T19:21:27.184Z,9.13
2023-04-22T19:23:55.932Z,17.27
2023-04-22T19:26:26.708Z,19.55
2023-04-22T19:28:55.424Z,16.33
2023-04-22T19:31:24.253Z,10.55
2023-04-22T19:36:21.538Z,10.98
2023-04-22T19:38:50.217Z,14.93
2023-04-22T19:41:18.752Z,14.45
2023-04-22T19:43:47.113Z,10.50
2023-04-22T19:46:15.642Z,10.10
2023-04-22T19:48:44.369Z,10.43
2023-04-22T19:51:13.313Z,12.02
2023-04-22T19:53:42.553Z,6.70
2023-04-22T19:56:11.583Z,5.60
2023-04-22T19:58:41.323Z,4.50
2023-04-22T20:01:10.052Z,5.72
2023-04-22T20:06:07.827Z,4.85
2023-04-22T20:08:36.832Z,6.28
2023-04-22T20:11:05.588Z,12.00
2023-04-22T20:13:34.814Z,12.50
2023-04-22T20:16:04.106Z,9.32
2023-04-22T20:18:32.812Z,6.93
2023-04-22T20:21:01.558Z,5.85
2023-04-22T20:23:32.705Z,8.18
2023-04-22T20:26:02.595Z,12.15
2023-04-22T20:28:52.183Z,10.95
2023-04-22T20:31:23.043Z,8.10
2023-04-22T20:33:53.091Z,5.30
2023-04-22T20:36:22.747Z,6.15
2023-04-22T20:38:55.104Z,7.03
2023-04-22T20:41:24.991Z,4.60
2023-04-22T20:43:53.486Z,4.97
2023-04-22T20:46:23.392Z,5.35
2023-04-22T20:48:51.945Z,4.63
2023-04-22T20:51:20.035Z,6.78
2023-04-22T20:53:48.696Z,5.85
2023-04-22T20:56:16.905Z,7.63
2023-04-22T20:58:45.043Z,5.75
2023-04-22T21:01:16.554Z,4.70
2023-04-22T21:03:53.289Z,5.00
2023-04-22T21:06:22.383Z,3.75
2023-04-22T21:08:51.203Z,4.50
2023-04-22T21:13:49.084Z,6.50
2023-04-22T21:16:19.762Z,4.22
2023-04-22T21:18:49.372Z,3.53
2023-04-22T21:21:19.646Z,20.80
2023-04-22T21:23:48.479Z,8.60
2023-04-22T21:26:17.938Z,5.72
2023-04-22T21:28:46.305Z,5.63
2023-04-22T21:31:14.707Z,6.25
2023-04-22T21:33:43.149Z,3.80
2023-04-22T21:36:11.792Z,4.75
2023-04-22T21:38:40.261Z,6.45
2023-04-22T21:41:08.324Z,8.95
2023-04-22T21:43:36.256Z,8.40
2023-04-22T21:46:04.487Z,8.38
2023-04-22T21:48:32.533Z,12.50
2023-04-22T21:51:00.592Z,10.43
2023-04-22T21:53:28.492Z,8.27
2023-04-22T21:55:56.498Z,11.55
2023-04-22T21:58:24.394Z,8.05
2023-04-22T22:00:52.570Z,8.50
2023-04-22T22:03:20.662Z,5.82
2023-04-22T22:05:49.232Z,4.28
2023-04-22T22:08:17.120Z,4.20
2023-04-22T22:10:45.255Z,4.88
2023-04-22T22:13:13.289Z,3.97
2023-04-22T22:15:41.641Z,5.07
2023-04-22T22:18:09.557Z,4.00
2023-04-22T22:20:40.355Z,3.70
2023-04-22T22:23:08.240Z,4.13
2023-04-22T22:25:36.602Z,4.90
2023-04-22T22:28:04.490Z,5.68
2023-04-22T22:30:32.439Z,4.82
2023-04-22T22:33:00.923Z,3.67
2023-04-22T22:35:28.842Z,5.30
2023-04-22T22:37:56.706Z,5.13
2023-04-22T22:40:24.723Z,4.95
2023-04-22T22:42:52.582Z,9.63
2023-04-22T22:45:20.560Z,5.38
2023-04-22T22:47:48.470Z,3.58
2023-04-22T22:50:16.470Z,8.90
2023-04-22T22:52:44.524Z,10.00
2023-04-22T22:55:12.489Z,11.27
2023-04-22T22:57:40.562Z,7.18
2023-04-22T23:00:11.191Z,4.43
2023-04-22T23:02:39.590Z,3.97
2023-04-22T23:05:10.635Z,3.15
2023-04-22T23:07:38.955Z,3.70
2023-04-22T23:10:07.723Z,7.10
2023-04-22T23:12:35.633Z,4.78
2023-04-22T23:15:04.086Z,3.78
2023-04-22T23:17:32.161Z,3.60
2023-04-22T23:20:01.580Z,4.10
2023-04-22T23:22:31.312Z,3.88
2023-04-22T23:24:59.652Z,4.47
2023-04-22T23:27:28.005Z,4.45
2023-04-22T23:29:57.162Z,4.38
2023-04-22T23:34:58.149Z,4.10
2023-04-22T23:37:49.234Z,3.35
2023-04-22T23:40:17.376Z,4.63
2023-04-22T23:42:45.306Z,3.60
2023-04-22T23:45:13.529Z,4.40
2023-04-22T23:47:41.540Z,3.78
2023-04-22T23:50:10.298Z,5.32
2023-04-22T23:52:41.440Z,4.40
2023-04-22T23:55:11.573Z,4.65
2023-04-22T23:57:39.899Z,4.13
